sensor_id;sensor_type;location;lat;lon;timestamp;pressure;altitude;pressure_sealevel;temperature;humidity
54920;BME280;63804;53.120;8.764;2023-02-05T00:01:36;103871.22;;;4.19;43.59
54920;BME280;63804;53.120;8.764;2023-02-05T00:04:02;103865.72;;;4.25;43.37
54920;BME280;63804;53.120;8.764;2023-02-05T00:06:28;103859.84;;;4.28;43.46
54920;BME280;63804;53.120;8.764;2023-02-05T00:08:55;103845.28;;;4.30;43.48
54920;BME280;63804;53.120;8.764;2023-02-05T00:11:21;103845.06;;;4.31;43.52
54920;BME280;63804;53.120;8.764;2023-02-05T00:13:47;103848.22;;;4.28;43.41
54920;BME280;63804;53.120;8.764;2023-02-05T00:16:15;103848.00;;;4.30;43.25
54920;BME280;63804;53.120;8.764;2023-02-05T00:18:42;103848.47;;;4.01;43.76
54920;BME280;63804;53.120;8.764;2023-02-05T00:21:15;103842.03;;;4.02;43.82
54920;BME280;63804;53.120;8.764;2023-02-05T00:23:41;103843.34;;;3.93;43.99
54920;BME280;63804;53.120;8.764;2023-02-05T00:26:07;103840.97;;;4.03;43.83
54920;BME280;63804;53.120;8.764;2023-02-05T00:28:36;103844.59;;;4.16;43.81
54920;BME280;63804;53.120;8.764;2023-02-05T00:31:14;103836.97;;;4.31;43.23
54920;BME280;63804;53.120;8.764;2023-02-05T00:33:40;103843.97;;;4.39;43.11
54920;BME280;63804;53.120;8.764;2023-02-05T00:36:07;103824.97;;;4.45;42.98
54920;BME280;63804;53.120;8.764;2023-02-05T00:38:34;103821.47;;;4.38;43.24
54920;BME280;63804;53.120;8.764;2023-02-05T00:41:01;103805.63;;;4.42;43.36
54920;BME280;63804;53.120;8.764;2023-02-05T00:43:27;103801.34;;;4.53;42.96
54920;BME280;63804;53.120;8.764;2023-02-05T00:45:53;103786.91;;;4.40;43.25
54920;BME280;63804;53.120;8.764;2023-02-05T00:48:19;103786.03;;;4.46;43.08
54920;BME280;63804;53.120;8.764;2023-02-05T00:50:47;103781.50;;;4.40;43.07
54920;BME280;63804;53.120;8.764;2023-02-05T00:53:13;103779.41;;;4.42;42.93
54920;BME280;63804;53.120;8.764;2023-02-05T00:55:39;103771.16;;;4.37;43.03
54920;BME280;63804;53.120;8.764;2023-02-05T00:58:04;103757.34;;;4.45;43.22
54920;BME280;63804;53.120;8.764;2023-02-05T01:00:30;103746.03;;;4.49;42.84
54920;BME280;63804;53.120;8.764;2023-02-05T01:02:58;103744.56;;;4.34;43.10
54920;BME280;63804;53.120;8.764;2023-02-05T01:05:24;103740.13;;;4.40;42.90
54920;BME280;63804;53.120;8.764;2023-02-05T01:07:50;103733.00;;;4.45;42.76
54920;BME280;63804;53.120;8.764;2023-02-05T01:10:16;103734.47;;;4.41;42.79
54920;BME280;63804;53.120;8.764;2023-02-05T01:12:42;103741.94;;;4.46;42.80
54920;BME280;63804;53.120;8.764;2023-02-05T01:15:11;103740.94;;;4.40;42.89
54920;BME280;63804;53.120;8.764;2023-02-05T01:17:37;103738.63;;;4.44;42.76
54920;BME280;63804;53.120;8.764;2023-02-05T01:20:04;103742.88;;;4.52;42.62
54920;BME280;63804;53.120;8.764;2023-02-05T01:22:31;103726.34;;;4.60;42.35
54920;BME280;63804;53.120;8.764;2023-02-05T01:24:57;103729.50;;;4.57;42.82
54920;BME280;63804;53.120;8.764;2023-02-05T01:27:23;103731.56;;;4.43;42.71
54920;BME280;63804;53.120;8.764;2023-02-05T01:29:49;103742.44;;;4.36;42.88
54920;BME280;63804;53.120;8.764;2023-02-05T01:32:16;103748.75;;;4.49;42.83
54920;BME280;63804;53.120;8.764;2023-02-05T01:34:43;103739.91;;;4.41;42.77
54920;BME280;63804;53.120;8.764;2023-02-05T01:37:09;103740.78;;;4.35;43.02
54920;BME280;63804;53.120;8.764;2023-02-05T01:39:35;103740.19;;;4.33;43.15
54920;BME280;63804;53.120;8.764;2023-02-05T01:42:03;103741.78;;;4.41;42.93
54920;BME280;63804;53.120;8.764;2023-02-05T01:44:29;103741.09;;;4.45;42.79
54920;BME280;63804;53.120;8.764;2023-02-05T01:46:56;103737.16;;;4.60;42.38
54920;BME280;63804;53.120;8.764;2023-02-05T01:49:41;103732.19;;;4.57;42.39
54920;BME280;63804;53.120;8.764;2023-02-05T01:52:13;103716.81;;;4.57;42.29
54920;BME280;63804;53.120;8.764;2023-02-05T01:54:43;103714.78;;;4.53;42.64
54920;BME280;63804;53.120;8.764;2023-02-05T01:57:16;103709.66;;;4.63;42.36
54920;BME280;63804;53.120;8.764;2023-02-05T01:59:44;103707.53;;;4.65;42.36
54920;BME280;63804;53.120;8.764;2023-02-05T02:02:11;103718.50;;;4.70;42.41
54920;BME280;63804;53.120;8.764;2023-02-05T02:04:43;103719.13;;;4.54;42.22
54920;BME280;63804;53.120;8.764;2023-02-05T02:07:12;103713.63;;;4.60;42.61
54920;BME280;63804;53.120;8.764;2023-02-05T02:09:41;103714.38;;;4.68;42.42
54920;BME280;63804;53.120;8.764;2023-02-05T02:12:12;103718.16;;;4.78;42.18
54920;BME280;63804;53.120;8.764;2023-02-05T02:14:48;103716.75;;;4.76;42.26
54920;BME280;63804;53.120;8.764;2023-02-05T02:17:15;103726.63;;;4.70;42.29
54920;BME280;63804;53.120;8.764;2023-02-05T02:19:50;103722.03;;;4.71;42.40
54920;BME280;63804;53.120;8.764;2023-02-05T02:22:57;103728.88;;;4.73;41.96
54920;BME280;63804;53.120;8.764;2023-02-05T02:26:00;103725.13;;;4.74;42.30
54920;BME280;63804;53.120;8.764;2023-02-05T02:28:55;103726.25;;;4.67;42.19
54920;BME280;63804;53.120;8.764;2023-02-05T02:34:14;103722.66;;;4.85;41.96
54920;BME280;63804;53.120;8.764;2023-02-05T02:42:14;103717.97;;;4.92;41.82
54920;BME280;63804;53.120;8.764;2023-02-05T02:44:46;103703.63;;;4.91;42.05
54920;BME280;63804;53.120;8.764;2023-02-05T02:47:20;103709.97;;;4.97;41.82
54920;BME280;63804;53.120;8.764;2023-02-05T02:49:53;103695.63;;;4.96;41.92
54920;BME280;63804;53.120;8.764;2023-02-05T02:52:21;103697.00;;;4.87;42.39
54920;BME280;63804;53.120;8.764;2023-02-05T02:54:52;103691.56;;;4.75;42.29
54920;BME280;63804;53.120;8.764;2023-02-05T02:57:23;103687.69;;;4.71;42.53
54920;BME280;63804;53.120;8.764;2023-02-05T02:59:53;103685.13;;;4.76;42.25
54920;BME280;63804;53.120;8.764;2023-02-05T03:02:20;103665.16;;;4.89;42.06
54920;BME280;63804;53.120;8.764;2023-02-05T03:04:59;103653.13;;;4.85;42.28
54920;BME280;63804;53.120;8.764;2023-02-05T03:07:39;103665.84;;;4.96;41.90
54920;BME280;63804;53.120;8.764;2023-02-05T03:12:43;103657.38;;;4.81;42.42
54920;BME280;63804;53.120;8.764;2023-02-05T03:15:10;103653.84;;;4.92;42.28
54920;BME280;63804;53.120;8.764;2023-02-05T03:17:36;103648.44;;;4.92;42.13
54920;BME280;63804;53.120;8.764;2023-02-05T03:20:16;103646.69;;;4.98;42.25
54920;BME280;63804;53.120;8.764;2023-02-05T03:22:44;103642.09;;;4.98;41.86
54920;BME280;63804;53.120;8.764;2023-02-05T03:25:10;103648.34;;;4.99;42.21
54920;BME280;63804;53.120;8.764;2023-02-05T03:27:37;103642.41;;;4.78;42.26
54920;BME280;63804;53.120;8.764;2023-02-05T03:30:04;103630.41;;;4.74;42.35
54920;BME280;63804;53.120;8.764;2023-02-05T03:32:49;103624.44;;;4.84;42.26
54920;BME280;63804;53.120;8.764;2023-02-05T03:35:42;103630.66;;;4.85;42.42
54920;BME280;63804;53.120;8.764;2023-02-05T03:41:59;103612.06;;;5.00;42.04
54920;BME280;63804;53.120;8.764;2023-02-05T03:48:00;103620.41;;;4.87;42.21
54920;BME280;63804;53.120;8.764;2023-02-05T03:50:19;103621.59;;;4.79;42.24
54920;BME280;63804;53.120;8.764;2023-02-05T03:52:50;103620.75;;;4.78;42.34
54920;BME280;63804;53.120;8.764;2023-02-05T03:55:23;103618.78;;;4.86;42.26
54920;BME280;63804;53.120;8.764;2023-02-05T03:58:00;103621.59;;;4.79;42.23
54920;BME280;63804;53.120;8.764;2023-02-05T04:00:28;103641.81;;;4.76;42.14
54920;BME280;63804;53.120;8.764;2023-02-05T04:02:54;103628.63;;;4.80;42.17
54920;BME280;63804;53.120;8.764;2023-02-05T04:05:26;103639.91;;;4.77;42.22
54920;BME280;63804;53.120;8.764;2023-02-05T04:07:52;103628.28;;;4.76;42.20
54920;BME280;63804;53.120;8.764;2023-02-05T04:10:18;103633.56;;;4.71;42.27
54920;BME280;63804;53.120;8.764;2023-02-05T04:12:44;103631.00;;;4.76;42.20
54920;BME280;63804;53.120;8.764;2023-02-05T04:15:10;103624.03;;;4.80;42.13
54920;BME280;63804;53.120;8.764;2023-02-05T04:17:37;103624.88;;;4.81;42.21
54920;BME280;63804;53.120;8.764;2023-02-05T04:20:05;103624.50;;;4.66;42.60
54920;BME280;63804;53.120;8.764;2023-02-05T04:22:31;103620.16;;;4.76;42.25
54920;BME280;63804;53.120;8.764;2023-02-05T04:24:57;103610.88;;;4.72;42.27
54920;BME280;63804;53.120;8.764;2023-02-05T04:27:23;103589.78;;;4.62;42.49
54920;BME280;63804;53.120;8.764;2023-02-05T04:29:49;103568.72;;;4.64;42.53
54920;BME280;63804;53.120;8.764;2023-02-05T04:32:15;103571.09;;;4.61;42.61
54920;BME280;63804;53.120;8.764;2023-02-05T04:34:40;103581.81;;;4.68;42.58
54920;BME280;63804;53.120;8.764;2023-02-05T04:37:06;103580.72;;;4.69;42.49
54920;BME280;63804;53.120;8.764;2023-02-05T04:39:32;103596.38;;;4.67;42.53
54920;BME280;63804;53.120;8.764;2023-02-05T04:41:58;103586.66;;;4.77;42.31
54920;BME280;63804;53.120;8.764;2023-02-05T04:44:26;103585.22;;;4.87;42.35
54920;BME280;63804;53.120;8.764;2023-02-05T04:46:52;103577.34;;;4.85;42.32
54920;BME280;63804;53.120;8.764;2023-02-05T04:49:18;103570.75;;;4.81;42.42
54920;BME280;63804;53.120;8.764;2023-02-05T04:51:44;103579.13;;;4.79;42.24
54920;BME280;63804;53.120;8.764;2023-02-05T04:54:10;103579.47;;;4.83;42.43
54920;BME280;63804;53.120;8.764;2023-02-05T04:56:38;103575.22;;;4.87;42.39
54920;BME280;63804;53.120;8.764;2023-02-05T04:59:04;103581.25;;;4.89;42.20
54920;BME280;63804;53.120;8.764;2023-02-05T05:01:29;103576.88;;;4.76;42.39
54920;BME280;63804;53.120;8.764;2023-02-05T05:03:55;103581.81;;;4.79;42.33
54920;BME280;63804;53.120;8.764;2023-02-05T05:06:21;103578.16;;;4.74;42.40
54920;BME280;63804;53.120;8.764;2023-02-05T05:08:47;103574.06;;;4.83;42.23
54920;BME280;63804;53.120;8.764;2023-02-05T05:11:15;103573.94;;;4.90;42.31
54920;BME280;63804;53.120;8.764;2023-02-05T05:13:42;103574.97;;;4.89;42.36
54920;BME280;63804;53.120;8.764;2023-02-05T05:16:08;103573.94;;;4.90;42.26
54920;BME280;63804;53.120;8.764;2023-02-05T05:18:35;103575.09;;;4.94;42.09
54920;BME280;63804;53.120;8.764;2023-02-05T05:21:03;103569.34;;;4.90;42.06
54920;BME280;63804;53.120;8.764;2023-02-05T05:23:29;103557.94;;;4.76;42.40
54920;BME280;63804;53.120;8.764;2023-02-05T05:25:55;103567.09;;;4.75;42.42
54920;BME280;63804;53.120;8.764;2023-02-05T05:28:21;103568.63;;;4.71;42.55
54920;BME280;63804;53.120;8.764;2023-02-05T05:30:47;103572.25;;;4.65;42.58
54920;BME280;63804;53.120;8.764;2023-02-05T05:33:13;103579.88;;;4.44;43.03
54920;BME280;63804;53.120;8.764;2023-02-05T05:35:39;103579.31;;;4.66;42.70
54920;BME280;63804;53.120;8.764;2023-02-05T05:38:05;103561.34;;;4.83;42.36
54920;BME280;63804;53.120;8.764;2023-02-05T05:40:31;103571.34;;;4.83;42.44
54920;BME280;63804;53.120;8.764;2023-02-05T05:43:23;103569.00;;;4.87;42.48
54920;BME280;63804;53.120;8.764;2023-02-05T05:46:07;103557.47;;;4.79;42.54
54920;BME280;63804;53.120;8.764;2023-02-05T05:48:33;103562.41;;;4.82;42.68
54920;BME280;63804;53.120;8.764;2023-02-05T05:50:59;103556.31;;;4.99;42.68
54920;BME280;63804;53.120;8.764;2023-02-05T05:53:24;103556.16;;;4.82;43.11
54920;BME280;63804;53.120;8.764;2023-02-05T05:55:50;103555.81;;;4.78;43.25
54920;BME280;63804;53.120;8.764;2023-02-05T05:58:16;103554.63;;;4.74;43.65
54920;BME280;63804;53.120;8.764;2023-02-05T06:00:42;103546.28;;;4.88;43.24
54920;BME280;63804;53.120;8.764;2023-02-05T06:03:11;103540.66;;;4.89;43.62
54920;BME280;63804;53.120;8.764;2023-02-05T06:05:38;103528.28;;;4.93;43.34
54920;BME280;63804;53.120;8.764;2023-02-05T06:08:04;103522.50;;;4.78;43.94
54920;BME280;63804;53.120;8.764;2023-02-05T06:10:31;103516.63;;;4.81;44.10
54920;BME280;63804;53.120;8.764;2023-02-05T06:12:58;103518.16;;;4.89;44.35
54920;BME280;63804;53.120;8.764;2023-02-05T06:15:24;103522.16;;;4.98;44.26
54920;BME280;63804;53.120;8.764;2023-02-05T06:17:52;103504.25;;;4.97;44.32
54920;BME280;63804;53.120;8.764;2023-02-05T06:20:18;103500.63;;;4.91;44.43
54920;BME280;63804;53.120;8.764;2023-02-05T06:22:44;103492.03;;;4.82;44.53
54920;BME280;63804;53.120;8.764;2023-02-05T06:25:10;103496.25;;;4.78;44.71
54920;BME280;63804;53.120;8.764;2023-02-05T06:27:35;103489.56;;;4.81;44.81
54920;BME280;63804;53.120;8.764;2023-02-05T06:30:01;103488.72;;;4.80;44.83
54920;BME280;63804;53.120;8.764;2023-02-05T06:32:27;103492.41;;;4.86;45.00
54920;BME280;63804;53.120;8.764;2023-02-05T06:34:53;103485.91;;;4.75;44.80
54920;BME280;63804;53.120;8.764;2023-02-05T06:37:19;103489.69;;;4.74;45.18
54920;BME280;63804;53.120;8.764;2023-02-05T06:39:45;103485.44;;;4.78;45.16
54920;BME280;63804;53.120;8.764;2023-02-05T06:42:10;103479.22;;;4.66;45.23
54920;BME280;63804;53.120;8.764;2023-02-05T06:44:36;103480.16;;;4.60;45.63
54920;BME280;63804;53.120;8.764;2023-02-05T06:47:02;103479.22;;;4.66;45.60
54920;BME280;63804;53.120;8.764;2023-02-05T06:49:28;103466.84;;;4.70;45.42
54920;BME280;63804;53.120;8.764;2023-02-05T06:51:54;103468.28;;;4.61;45.52
54920;BME280;63804;53.120;8.764;2023-02-05T06:54:20;103464.75;;;4.72;45.53
54920;BME280;63804;53.120;8.764;2023-02-05T06:56:45;103466.50;;;4.78;45.55
54920;BME280;63804;53.120;8.764;2023-02-05T06:59:12;103470.28;;;4.77;45.51
54920;BME280;63804;53.120;8.764;2023-02-05T07:01:38;103474.38;;;4.80;45.50
54920;BME280;63804;53.120;8.764;2023-02-05T07:04:04;103481.34;;;4.76;45.58
54920;BME280;63804;53.120;8.764;2023-02-05T07:06:29;103478.41;;;4.77;45.40
54920;BME280;63804;53.120;8.764;2023-02-05T07:08:55;103477.34;;;4.67;46.16
54920;BME280;63804;53.120;8.764;2023-02-05T07:11:22;103473.69;;;4.61;46.21
54920;BME280;63804;53.120;8.764;2023-02-05T07:13:48;103478.28;;;4.72;45.91
54920;BME280;63804;53.120;8.764;2023-02-05T07:16:14;103475.69;;;4.77;45.71
54920;BME280;63804;53.120;8.764;2023-02-05T07:18:46;103474.97;;;4.82;45.68
54920;BME280;63804;53.120;8.764;2023-02-05T07:21:15;103472.03;;;4.72;45.80
54920;BME280;63804;53.120;8.764;2023-02-05T07:23:42;103482.28;;;4.70;45.94
54920;BME280;63804;53.120;8.764;2023-02-05T07:26:09;103491.94;;;4.66;45.97
54920;BME280;63804;53.120;8.764;2023-02-05T07:28:35;103492.50;;;4.56;46.43
54920;BME280;63804;53.120;8.764;2023-02-05T07:31:11;103484.16;;;4.69;46.48
54920;BME280;63804;53.120;8.764;2023-02-05T07:33:37;103486.03;;;4.69;46.34
54920;BME280;63804;53.120;8.764;2023-02-05T07:36:04;103493.91;;;4.70;46.29
54920;BME280;63804;53.120;8.764;2023-02-05T07:38:30;103497.81;;;4.74;46.14
54920;BME280;63804;53.120;8.764;2023-02-05T07:40:56;103499.94;;;4.72;46.20
54920;BME280;63804;53.120;8.764;2023-02-05T07:43:22;103510.59;;;4.67;46.23
54920;BME280;63804;53.120;8.764;2023-02-05T07:45:58;103502.16;;;4.75;46.43
54920;BME280;63804;53.120;8.764;2023-02-05T07:48:24;103507.22;;;4.83;46.13
54920;BME280;63804;53.120;8.764;2023-02-05T07:50:50;103503.22;;;4.74;46.39
54920;BME280;63804;53.120;8.764;2023-02-05T07:53:16;103502.50;;;4.67;46.58
54920;BME280;63804;53.120;8.764;2023-02-05T07:55:42;103503.00;;;4.64;46.92
54920;BME280;63804;53.120;8.764;2023-02-05T07:58:08;103512.50;;;4.55;47.34
54920;BME280;63804;53.120;8.764;2023-02-05T08:00:34;103507.09;;;4.78;47.13
54920;BME280;63804;53.120;8.764;2023-02-05T08:02:59;103507.94;;;4.91;46.62
54920;BME280;63804;53.120;8.764;2023-02-05T08:05:25;103520.84;;;5.00;46.34
54920;BME280;63804;53.120;8.764;2023-02-05T08:07:51;103507.44;;;5.06;46.38
54920;BME280;63804;53.120;8.764;2023-02-05T08:10:17;103515.69;;;4.99;46.55
54920;BME280;63804;53.120;8.764;2023-02-05T08:12:43;103507.56;;;4.99;46.73
54920;BME280;63804;53.120;8.764;2023-02-05T08:15:09;103503.22;;;4.98;46.57
54920;BME280;63804;53.120;8.764;2023-02-05T08:17:35;103508.03;;;4.96;46.26
54920;BME280;63804;53.120;8.764;2023-02-05T08:20:01;103516.28;;;5.01;46.48
54920;BME280;63804;53.120;8.764;2023-02-05T08:22:33;103509.19;;;5.00;46.46
54920;BME280;63804;53.120;8.764;2023-02-05T08:25:00;103501.44;;;4.92;46.71
54920;BME280;63804;53.120;8.764;2023-02-05T08:27:26;103505.22;;;4.91;46.84
54920;BME280;63804;53.120;8.764;2023-02-05T08:29:52;103509.66;;;4.97;46.75
54920;BME280;63804;53.120;8.764;2023-02-05T08:32:18;103515.44;;;5.00;46.85
54920;BME280;63804;53.120;8.764;2023-02-05T08:34:44;103508.75;;;5.03;46.52
54920;BME280;63804;53.120;8.764;2023-02-05T08:37:10;103513.56;;;5.01;46.73
54920;BME280;63804;53.120;8.764;2023-02-05T08:39:36;103515.09;;;4.97;46.85
54920;BME280;63804;53.120;8.764;2023-02-05T08:42:02;103521.22;;;5.04;46.80
54920;BME280;63804;53.120;8.764;2023-02-05T08:44:28;103525.09;;;5.08;46.72
54920;BME280;63804;53.120;8.764;2023-02-05T08:46:54;103527.22;;;4.94;46.87
54920;BME280;63804;53.120;8.764;2023-02-05T08:49:20;103539.44;;;4.97;46.88
54920;BME280;63804;53.120;8.764;2023-02-05T08:51:47;103538.63;;;4.96;47.09
54920;BME280;63804;53.120;8.764;2023-02-05T08:54:13;103549.22;;;4.98;46.79
54920;BME280;63804;53.120;8.764;2023-02-05T08:56:44;103552.97;;;4.97;47.01
54920;BME280;63804;53.120;8.764;2023-02-05T08:59:11;103553.22;;;5.07;46.71
54920;BME280;63804;53.120;8.764;2023-02-05T09:01:37;103551.69;;;5.11;46.56
54920;BME280;63804;53.120;8.764;2023-02-05T09:04:06;103558.28;;;5.04;46.77
54920;BME280;63804;53.120;8.764;2023-02-05T09:06:32;103560.16;;;5.15;46.80
54920;BME280;63804;53.120;8.764;2023-02-05T09:08:59;103561.81;;;5.16;46.61
54920;BME280;63804;53.120;8.764;2023-02-05T09:11:25;103565.00;;;5.13;46.60
54920;BME280;63804;53.120;8.764;2023-02-05T09:13:58;103560.41;;;5.01;47.17
54920;BME280;63804;53.120;8.764;2023-02-05T09:16:24;103567.81;;;5.06;47.01
54920;BME280;63804;53.120;8.764;2023-02-05T09:18:54;103565.47;;;5.22;46.92
54920;BME280;63804;53.120;8.764;2023-02-05T09:21:20;103573.00;;;5.19;46.82
54920;BME280;63804;53.120;8.764;2023-02-05T09:23:46;103566.91;;;5.36;46.51
54920;BME280;63804;53.120;8.764;2023-02-05T09:26:12;103572.06;;;5.37;46.51
54920;BME280;63804;53.120;8.764;2023-02-05T09:28:38;103563.91;;;5.14;47.21
54920;BME280;63804;53.120;8.764;2023-02-05T09:31:06;103553.69;;;5.28;47.14
54920;BME280;63804;53.120;8.764;2023-02-05T09:33:33;103559.69;;;5.30;47.09
54920;BME280;63804;53.120;8.764;2023-02-05T09:36:12;103557.91;;;5.24;47.45
54920;BME280;63804;53.120;8.764;2023-02-05T09:38:38;103569.94;;;5.28;47.41
54920;BME280;63804;53.120;8.764;2023-02-05T09:43:52;103564.41;;;5.46;47.18
54920;BME280;63804;53.120;8.764;2023-02-05T09:51:50;103567.31;;;5.56;46.85
54920;BME280;63804;53.120;8.764;2023-02-05T09:54:41;103588.66;;;5.53;47.15
54920;BME280;63804;53.120;8.764;2023-02-05T09:57:14;103589.72;;;5.40;47.04
54920;BME280;63804;53.120;8.764;2023-02-05T09:59:44;103592.41;;;5.28;47.20
54920;BME280;63804;53.120;8.764;2023-02-05T10:02:47;103598.06;;;5.27;47.73
54920;BME280;63804;53.120;8.764;2023-02-05T10:05:16;103597.75;;;5.35;47.20
54920;BME280;63804;53.120;8.764;2023-02-05T10:07:51;103600.19;;;5.25;47.58
54920;BME280;63804;53.120;8.764;2023-02-05T10:10:29;103601.75;;;5.44;47.57
54920;BME280;63804;53.120;8.764;2023-02-05T10:13:09;103610.22;;;5.36;47.43
54920;BME280;63804;53.120;8.764;2023-02-05T10:16:06;103611.50;;;5.45;47.28
54920;BME280;63804;53.120;8.764;2023-02-05T10:26:47;103613.16;;;5.46;47.18
54920;BME280;63804;53.120;8.764;2023-02-05T10:29:40;103616.09;;;5.56;47.25
54920;BME280;63804;53.120;8.764;2023-02-05T10:32:21;103616.34;;;5.43;47.26
54920;BME280;63804;53.120;8.764;2023-02-05T10:35:04;103626.72;;;5.46;47.18
54920;BME280;63804;53.120;8.764;2023-02-05T10:37:42;103620.72;;;5.32;47.51
54920;BME280;63804;53.120;8.764;2023-02-05T10:40:14;103626.47;;;5.48;47.30
54920;BME280;63804;53.120;8.764;2023-02-05T10:42:46;103626.84;;;5.40;47.64
54920;BME280;63804;53.120;8.764;2023-02-05T10:45:17;103624.13;;;5.40;47.49
54920;BME280;63804;53.120;8.764;2023-02-05T10:50:48;103634.47;;;5.54;47.49
54920;BME280;63804;53.120;8.764;2023-02-05T10:53:18;103646.47;;;5.59;46.96
54920;BME280;63804;53.120;8.764;2023-02-05T10:55:44;103649.88;;;5.30;47.51
54920;BME280;63804;53.120;8.764;2023-02-05T10:58:35;103646.25;;;5.36;47.52
54920;BME280;63804;53.120;8.764;2023-02-05T11:01:13;103653.34;;;5.49;47.57
54920;BME280;63804;53.120;8.764;2023-02-05T11:04:05;103660.84;;;5.47;47.41
54920;BME280;63804;53.120;8.764;2023-02-05T11:06:41;103656.50;;;5.34;47.63
54920;BME280;63804;53.120;8.764;2023-02-05T11:09:28;103663.94;;;5.39;47.50
54920;BME280;63804;53.120;8.764;2023-02-05T11:11:59;103670.13;;;5.28;47.56
54920;BME280;63804;53.120;8.764;2023-02-05T11:14:32;103657.56;;;5.33;47.52
54920;BME280;63804;53.120;8.764;2023-02-05T11:17:17;103653.22;;;5.44;47.27
54920;BME280;63804;53.120;8.764;2023-02-05T11:19:56;103661.81;;;5.41;47.29
54920;BME280;63804;53.120;8.764;2023-02-05T11:22:49;103669.13;;;5.52;47.26
54920;BME280;63804;53.120;8.764;2023-02-05T11:25:29;103681.47;;;5.48;47.25
54920;BME280;63804;53.120;8.764;2023-02-05T11:28:02;103682.78;;;5.57;47.10
54920;BME280;63804;53.120;8.764;2023-02-05T11:30:31;103675.94;;;5.67;47.22
54920;BME280;63804;53.120;8.764;2023-02-05T11:33:16;103686.19;;;5.53;47.52
54920;BME280;63804;53.120;8.764;2023-02-05T11:35:55;103688.56;;;5.49;47.80
54920;BME280;63804;53.120;8.764;2023-02-05T11:41:03;103692.84;;;5.27;47.99
54920;BME280;63804;53.120;8.764;2023-02-05T11:43:33;103691.50;;;5.36;47.81
54920;BME280;63804;53.120;8.764;2023-02-05T11:46:02;103683.59;;;5.46;47.87
54920;BME280;63804;53.120;8.764;2023-02-05T11:48:40;103683.94;;;5.62;47.70
54920;BME280;63804;53.120;8.764;2023-02-05T11:51:12;103685.84;;;5.61;47.81
54920;BME280;63804;53.120;8.764;2023-02-05T11:53:52;103690.41;;;5.72;47.48
54920;BME280;63804;53.120;8.764;2023-02-05T11:56:22;103687.34;;;5.57;47.65
54920;BME280;63804;53.120;8.764;2023-02-05T11:59:03;103679.81;;;5.71;47.31
54920;BME280;63804;53.120;8.764;2023-02-05T12:01:31;103687.81;;;5.66;47.62
54920;BME280;63804;53.120;8.764;2023-02-05T12:06:54;103677.81;;;5.78;47.68
54920;BME280;63804;53.120;8.764;2023-02-05T12:09:23;103679.22;;;5.69;47.75
54920;BME280;63804;53.120;8.764;2023-02-05T12:12:06;103671.56;;;5.66;47.70
54920;BME280;63804;53.120;8.764;2023-02-05T12:20:02;103659.56;;;5.62;47.79
54920;BME280;63804;53.120;8.764;2023-02-05T12:30:58;103658.25;;;5.76;48.14
54920;BME280;63804;53.120;8.764;2023-02-05T12:42:07;103657.47;;;5.92;48.10
54920;BME280;63804;53.120;8.764;2023-02-05T12:44:35;103651.59;;;5.96;48.18
54920;BME280;63804;53.120;8.764;2023-02-05T12:47:14;103654.78;;;5.92;48.30
54920;BME280;63804;53.120;8.764;2023-02-05T12:52:56;103650.06;;;6.00;48.40
54920;BME280;63804;53.120;8.764;2023-02-05T12:55:35;103661.75;;;5.88;48.50
54920;BME280;63804;53.120;8.764;2023-02-05T12:58:08;103670.00;;;5.93;48.63
54920;BME280;63804;53.120;8.764;2023-02-05T13:00:45;103670.22;;;5.92;48.58
54920;BME280;63804;53.120;8.764;2023-02-05T13:06:05;103674.72;;;5.86;48.71
54920;BME280;63804;53.120;8.764;2023-02-05T13:08:46;103667.28;;;5.93;48.79
54920;BME280;63804;53.120;8.764;2023-02-05T13:11:24;103666.13;;;5.89;49.02
54920;BME280;63804;53.120;8.764;2023-02-05T13:16:32;103670.78;;;6.06;48.82
54920;BME280;63804;53.120;8.764;2023-02-05T13:19:38;103679.63;;;6.13;48.67
54920;BME280;63804;53.120;8.764;2023-02-05T13:22:22;103682.31;;;6.13;48.78
54920;BME280;63804;53.120;8.764;2023-02-05T13:25:19;103698.50;;;6.08;48.73
54920;BME280;63804;53.120;8.764;2023-02-05T13:31:08;103705.22;;;6.05;48.71
54920;BME280;63804;53.120;8.764;2023-02-05T13:33:35;103705.91;;;6.01;48.93
54920;BME280;63804;53.120;8.764;2023-02-05T13:36:21;103704.28;;;6.00;49.15
54920;BME280;63804;53.120;8.764;2023-02-05T13:49:53;103729.94;;;6.21;48.93
54920;BME280;63804;53.120;8.764;2023-02-05T13:55:42;103741.78;;;6.03;49.78
54920;BME280;63804;53.120;8.764;2023-02-05T13:58:28;103746.59;;;6.01;49.46
54920;BME280;63804;53.120;8.764;2023-02-05T14:01:12;103749.19;;;5.96;49.36
54920;BME280;63804;53.120;8.764;2023-02-05T14:03:55;103758.97;;;6.08;49.27
54920;BME280;63804;53.120;8.764;2023-02-05T14:08:53;103763.31;;;6.21;49.06
54920;BME280;63804;53.120;8.764;2023-02-05T14:11:22;103768.66;;;6.04;49.20
54920;BME280;63804;53.120;8.764;2023-02-05T14:16:43;103776.78;;;6.16;49.10
54920;BME280;63804;53.120;8.764;2023-02-05T14:19:15;103776.78;;;6.16;49.11
54920;BME280;63804;53.120;8.764;2023-02-05T14:24:39;103782.31;;;6.09;49.39
54920;BME280;63804;53.120;8.764;2023-02-05T14:38:54;103781.00;;;6.12;49.37
54920;BME280;63804;53.120;8.764;2023-02-05T14:41:24;103786.88;;;6.21;49.24
54920;BME280;63804;53.120;8.764;2023-02-05T14:43:59;103779.00;;;6.31;49.01
54920;BME280;63804;53.120;8.764;2023-02-05T14:49:25;103776.72;;;6.40;49.18
54920;BME280;63804;53.120;8.764;2023-02-05T14:51:59;103784.03;;;6.27;49.24
54920;BME280;63804;53.120;8.764;2023-02-05T14:54:30;103789.84;;;6.31;49.22
54920;BME280;63804;53.120;8.764;2023-02-05T14:57:11;103785.38;;;6.25;49.42
54920;BME280;63804;53.120;8.764;2023-02-05T15:05:26;103797.88;;;6.14;49.55
54920;BME280;63804;53.120;8.764;2023-02-05T15:10:30;103817.47;;;6.04;49.67
54920;BME280;63804;53.120;8.764;2023-02-05T15:13:15;103831.72;;;6.23;49.64
54920;BME280;63804;53.120;8.764;2023-02-05T15:18:44;103836.19;;;6.06;49.91
54920;BME280;63804;53.120;8.764;2023-02-05T15:21:25;103824.41;;;6.24;49.78
54920;BME280;63804;53.120;8.764;2023-02-05T15:29:12;103861.22;;;6.08;50.24